CheckWX is a tool to help pilots better visualize weather data.  It is not intended as a substitute for an official pre-flight weather briefing.

11:06:36 UTC

KHOT METAR
Memorial Field Airport
Hot Springs, Arkansas, USA
Current

14 mins ago

KHOT 241053Z AUTO 00000KT 10SM CLR 22/21 A3007 RMK AO2 SLP176 T02220206
Observed
May-24 @ 10:53 UTC
Visibility
10 SM
Flight Rules
VFR
Cloud Levels
  • Clear skies
Temperature
22°C / 72°F
Dewpoint
21°C / 70°F
Humidity
94%
Altimeter
30.07" Hg
Pressure
1018.32 hPa
Previous

1 hour ago

KHOT 240953Z AUTO 20003KT 10SM CLR 24/21 A3005 RMK AO2 SLP169 T02440211
Observed
May-24 @ 09:53 UTC
Wind
  • 200° at 3 KTS
Visibility
10 SM
Flight Rules
VFR
Cloud Levels
  • Clear skies
Temperature
24°C / 75°F
Dewpoint
21°C / 70°F
Humidity
83%
Altimeter
30.05" Hg
Pressure
1017.62 hPa
Previous

2 hours ago

KHOT 240853Z AUTO 21006KT 10SM CLR 25/21 A3004 RMK AO2 SLP165 T02500206 55006
Observed
May-24 @ 08:53 UTC
Wind
  • 210° at 6 KTS
Visibility
10 SM
Flight Rules
VFR
Cloud Levels
  • Clear skies
Temperature
25°C / 77°F
Dewpoint
21°C / 70°F
Humidity
79%
Altimeter
30.04" Hg
Pressure
1017.32 hPa